createdAt,value
2023-06-01T00:00:10.785Z,3.90
2023-06-01T00:02:42.086Z,4.30
2023-06-01T00:05:12.460Z,3.63
2023-06-01T00:07:40.625Z,4.33
2023-06-01T00:10:11.154Z,4.57
2023-06-01T00:12:40.156Z,4.30
2023-06-01T00:15:09.414Z,4.77
2023-06-01T00:17:37.964Z,4.20
2023-06-01T00:20:10.062Z,4.60
2023-06-01T00:22:40.685Z,5.10
2023-06-01T00:25:10.560Z,5.67
2023-06-01T00:27:40.986Z,5.10
2023-06-01T00:30:11.360Z,4.30
2023-06-01T00:32:40.452Z,5.47
2023-06-01T00:35:09.557Z,4.90
2023-06-01T00:37:38.984Z,4.83
2023-06-01T00:40:08.973Z,5.50
2023-06-01T00:42:37.727Z,5.60
2023-06-01T00:45:06.787Z,5.40
2023-06-01T00:47:42.408Z,5.27
2023-06-01T00:50:12.767Z,5.17
2023-06-01T00:52:45.008Z,6.10
2023-06-01T00:55:15.273Z,6.30
2023-06-01T00:57:45.043Z,6.00
2023-06-01T01:00:14.220Z,6.10
2023-06-01T01:02:45.922Z,5.87
2023-06-01T01:05:18.635Z,6.70
2023-06-01T01:08:02.267Z,6.07
2023-06-01T01:10:38.085Z,6.87
2023-06-01T01:13:15.017Z,6.90
2023-06-01T01:15:53.058Z,7.20
2023-06-01T01:18:33.552Z,6.80
2023-06-01T01:21:06.023Z,7.57
2023-06-01T01:24:32.604Z,6.57
2023-06-01T01:27:12.606Z,7.10
2023-06-01T01:29:46.018Z,7.70
2023-06-01T01:32:15.044Z,6.47
2023-06-01T01:34:48.022Z,7.00
2023-06-01T01:37:16.989Z,7.27
2023-06-01T01:39:45.559Z,7.43
2023-06-01T01:42:16.356Z,7.40
2023-06-01T01:44:47.901Z,8.40
2023-06-01T01:47:22.171Z,6.93
2023-06-01T01:49:58.164Z,6.90
2023-06-01T01:52:34.417Z,7.30
2023-06-01T01:55:07.045Z,8.20
2023-06-01T01:57:36.388Z,7.50
2023-06-01T02:00:08.726Z,6.60
2023-06-01T02:02:42.997Z,6.70
2023-06-01T02:05:13.040Z,7.57
2023-06-01T02:07:43.473Z,8.40
2023-06-01T02:10:14.079Z,7.23
2023-06-01T02:12:42.244Z,8.60
2023-06-01T02:15:12.077Z,7.77
2023-06-01T02:17:46.167Z,7.00
2023-06-01T02:20:16.418Z,8.67
2023-06-01T02:22:45.067Z,7.43
2023-06-01T02:25:13.574Z,8.00
2023-06-01T02:27:41.681Z,7.50
2023-06-01T02:30:13.502Z,7.63
2023-06-01T02:32:42.009Z,9.10
2023-06-01T02:35:10.769Z,8.53
2023-06-01T02:37:39.297Z,9.87
2023-06-01T02:40:12.847Z,9.43
2023-06-01T02:42:41.606Z,8.77
2023-06-01T02:45:11.787Z,10.10
2023-06-01T02:47:40.554Z,10.60
2023-06-01T02:50:11.991Z,12.67
2023-06-01T02:52:45.027Z,12.17
2023-06-01T02:55:13.201Z,12.03
2023-06-01T02:58:04.808Z,13.17
2023-06-01T03:00:46.300Z,22.73
2023-06-01T03:03:17.097Z,27.97
2023-06-01T03:05:46.066Z,27.57
2023-06-01T03:08:40.360Z,29.50
2023-06-01T03:11:17.617Z,31.40
2023-06-01T03:13:45.826Z,28.23
2023-06-01T03:16:19.153Z,27.80
2023-06-01T03:19:02.750Z,27.93
2023-06-01T03:21:32.977Z,27.90
2023-06-01T03:24:01.691Z,30.17
2023-06-01T03:26:30.808Z,31.37
2023-06-01T03:29:01.255Z,29.27
2023-06-01T03:31:35.606Z,29.63
2023-06-01T03:34:04.969Z,31.90
2023-06-01T03:36:34.401Z,33.67
2023-06-01T03:39:09.982Z,31.50
2023-06-01T03:41:40.728Z,26.57
2023-06-01T03:44:08.834Z,26.10
2023-06-01T03:46:38.313Z,25.67
2023-06-01T03:49:07.291Z,24.63
2023-06-01T03:51:40.313Z,22.73
2023-06-01T03:54:09.272Z,20.23
2023-06-01T03:56:37.832Z,23.50
2023-06-01T03:59:08.396Z,23.90
2023-06-01T04:01:41.204Z,21.60
2023-06-01T04:04:10.436Z,19.57
2023-06-01T04:06:38.618Z,19.77
2023-06-01T04:09:11.162Z,19.83
2023-06-01T04:11:41.670Z,18.73
2023-06-01T04:14:09.830Z,20.47
2023-06-01T04:16:40.730Z,21.57
2023-06-01T04:19:09.621Z,20.77
2023-06-01T04:21:39.370Z,20.77
2023-06-01T04:24:10.855Z,18.87
2023-06-01T04:26:39.883Z,21.70
2023-06-01T04:29:09.683Z,20.23
2023-06-01T04:31:41.075Z,20.90
2023-06-01T04:34:10.841Z,19.83
2023-06-01T04:36:41.061Z,20.80
2023-06-01T04:39:10.428Z,19.30
2023-06-01T04:41:42.284Z,18.93
2023-06-01T04:44:10.363Z,19.80
2023-06-01T04:46:42.770Z,19.53
2023-06-01T04:49:13.461Z,18.13
2023-06-01T04:51:43.424Z,19.20
2023-06-01T04:54:13.365Z,18.43
2023-06-01T04:56:41.610Z,17.07
2023-06-01T04:59:11.060Z,15.80
2023-06-01T05:01:42.976Z,14.60
2023-06-01T05:04:11.196Z,14.20
2023-06-01T05:06:39.341Z,14.60
2023-06-01T05:09:07.866Z,12.27
2023-06-01T05:11:35.992Z,13.47
2023-06-01T05:14:05.047Z,12.80
2023-06-01T05:16:35.153Z,14.13
2023-06-01T05:19:08.098Z,15.00
2023-06-01T05:21:38.450Z,15.40
2023-06-01T05:24:07.153Z,16.50
2023-06-01T05:26:36.036Z,14.80
2023-06-01T05:29:05.319Z,14.70
2023-06-01T05:31:33.523Z,18.33
2023-06-01T05:34:04.086Z,18.70
2023-06-01T05:36:35.586Z,17.47
2023-06-01T05:39:03.835Z,19.20
2023-06-01T05:41:32.051Z,21.10
2023-06-01T05:44:01.624Z,21.17
2023-06-01T05:46:29.962Z,21.30
2023-06-01T05:48:58.275Z,21.30
2023-06-01T05:51:27.352Z,19.57
2023-06-01T05:54:00.827Z,20.60
2023-06-01T05:56:31.350Z,21.50
2023-06-01T05:59:01.044Z,21.37
2023-06-01T06:01:29.785Z,29.30
2023-06-01T06:03:58.790Z,27.57
2023-06-01T06:06:28.949Z,27.50
2023-06-01T06:08:58.488Z,25.57
2023-06-01T06:11:27.110Z,25.73
2023-06-01T06:13:56.621Z,25.40
2023-06-01T06:16:24.895Z,29.13
2023-06-01T06:18:53.221Z,34.27
2023-06-01T06:21:23.574Z,34.93
2023-06-01T06:23:51.855Z,37.10
2023-06-01T06:26:21.473Z,32.50
2023-06-01T06:28:51.576Z,30.33
2023-06-01T06:31:19.724Z,29.33
2023-06-01T06:33:48.292Z,29.60
2023-06-01T06:36:17.117Z,27.90
2023-06-01T06:38:45.953Z,31.93
2023-06-01T06:41:15.083Z,32.67
2023-06-01T06:43:45.152Z,34.30
2023-06-01T06:46:14.321Z,34.77
2023-06-01T06:48:42.468Z,30.53
2023-06-01T06:51:13.098Z,33.77
2023-06-01T06:53:41.486Z,35.47
2023-06-01T06:56:11.864Z,34.20
2023-06-01T06:58:40.263Z,34.53
2023-06-01T07:01:09.812Z,33.83
2023-06-01T07:04:00.281Z,32.97
2023-06-01T07:06:29.400Z,35.50
2023-06-01T07:08:59.371Z,34.30
2023-06-01T07:11:28.253Z,34.10
2023-06-01T07:13:58.274Z,35.90
2023-06-01T07:16:30.884Z,33.00
2023-06-01T07:19:01.169Z,33.73
2023-06-01T07:21:29.361Z,31.20
2023-06-01T07:23:57.513Z,36.23
2023-06-01T07:26:27.753Z,36.87
2023-06-01T07:28:57.498Z,35.00
2023-06-01T07:31:30.548Z,34.60
2023-06-01T07:33:58.740Z,35.23
2023-06-01T07:36:27.160Z,33.93
2023-06-01T07:38:57.647Z,34.67
2023-06-01T07:41:28.743Z,31.07
2023-06-01T07:43:57.734Z,25.20
2023-06-01T07:46:26.403Z,26.27
2023-06-01T07:48:56.354Z,26.03
2023-06-01T07:51:25.206Z,27.60
2023-06-01T07:53:53.528Z,30.13
2023-06-01T07:56:21.798Z,26.13
2023-06-01T07:58:51.161Z,23.70
2023-06-01T08:01:21.278Z,25.27
2023-06-01T08:03:50.354Z,26.90
2023-06-01T08:06:26.907Z,22.77
2023-06-01T08:08:57.302Z,28.13
2023-06-01T08:11:25.433Z,28.40
2023-06-01T08:13:54.196Z,27.40
2023-06-01T08:16:22.355Z,23.20
2023-06-01T08:18:51.352Z,20.50
2023-06-01T08:21:21.780Z,18.83
2023-06-01T08:23:52.251Z,24.47
2023-06-01T08:26:22.052Z,22.93
2023-06-01T08:28:54.293Z,23.90
2023-06-01T08:31:23.529Z,21.20
2023-06-01T08:33:53.664Z,20.10
2023-06-01T08:36:23.753Z,17.57
2023-06-01T08:38:53.542Z,19.63
2023-06-01T08:41:28.320Z,17.43
2023-06-01T08:44:00.278Z,15.47
2023-06-01T08:46:32.338Z,16.50
2023-06-01T08:49:01.548Z,14.93
2023-06-01T08:51:35.635Z,13.43
2023-06-01T08:54:09.853Z,14.90
2023-06-01T08:56:43.258Z,17.50
2023-06-01T08:59:14.621Z,19.00
2023-06-01T09:01:43.330Z,19.30
2023-06-01T09:04:11.589Z,20.93
2023-06-01T09:06:44.122Z,21.87
2023-06-01T09:09:16.624Z,19.80
2023-06-01T09:11:45.718Z,18.50
2023-06-01T09:14:39.909Z,20.90
2023-06-01T09:17:10.254Z,20.00
2023-06-01T09:19:43.786Z,18.70
2023-06-01T09:22:14.032Z,21.90
2023-06-01T09:24:42.899Z,19.00
2023-06-01T09:27:12.064Z,19.67
2023-06-01T09:29:47.709Z,17.27
2023-06-01T09:32:30.044Z,18.43
2023-06-01T09:35:00.365Z,19.37
2023-06-01T09:37:32.551Z,17.30
2023-06-01T09:40:01.103Z,15.30
2023-06-01T09:42:36.583Z,15.97
2023-06-01T09:45:18.746Z,14.73
2023-06-01T09:47:47.146Z,13.83
2023-06-01T09:50:35.922Z,13.20
2023-06-01T09:53:06.862Z,12.30
2023-06-01T09:55:38.365Z,13.10
2023-06-01T09:58:24.356Z,13.33
2023-06-01T10:00:53.851Z,14.07
2023-06-01T10:03:25.301Z,12.27
2023-06-01T10:05:54.026Z,12.67
2023-06-01T10:08:23.741Z,10.97
2023-06-01T10:10:53.521Z,10.53
2023-06-01T10:13:25.829Z,10.10
2023-06-01T10:15:57.202Z,10.80
2023-06-01T10:18:26.385Z,12.10
2023-06-01T10:20:55.302Z,9.97
2023-06-01T10:23:32.161Z,10.40
2023-06-01T10:26:07.661Z,10.80
2023-06-01T10:28:37.620Z,11.10
2023-06-01T10:31:34.767Z,10.97
2023-06-01T10:34:03.062Z,11.10
2023-06-01T10:37:08.897Z,9.53
2023-06-01T10:39:39.870Z,9.90
2023-06-01T10:42:43.120Z,10.80
2023-06-01T10:45:39.149Z,10.37
2023-06-01T10:48:09.647Z,10.40
2023-06-01T10:50:37.814Z,11.33
2023-06-01T10:53:26.733Z,10.13
2023-06-01T10:56:33.313Z,10.63
2023-06-01T10:59:19.834Z,10.70
2023-06-01T11:01:49.505Z,9.20
2023-06-01T11:04:37.526Z,10.10
2023-06-01T11:07:40.686Z,10.50
2023-06-01T11:10:10.793Z,11.10
2023-06-01T11:13:18.914Z,11.30
2023-06-01T11:16:21.847Z,10.30
2023-06-01T11:18:56.590Z,10.00
2023-06-01T11:21:28.131Z,10.50
2023-06-01T11:24:00.789Z,11.27
2023-06-01T11:26:33.841Z,10.57
2023-06-01T11:29:09.534Z,10.50
2023-06-01T11:31:39.430Z,10.83
2023-06-01T11:34:09.475Z,11.40
2023-06-01T11:36:42.246Z,10.07
2023-06-01T11:39:23.663Z,9.33
2023-06-01T11:42:09.842Z,10.43
2023-06-01T11:44:41.410Z,12.27
2023-06-01T11:47:11.438Z,11.50
2023-06-01T11:49:50.430Z,12.07
2023-06-01T11:52:21.088Z,14.87
2023-06-01T11:54:52.376Z,10.40
2023-06-01T11:57:21.167Z,10.90
2023-06-01T11:59:52.236Z,12.60
2023-06-01T12:02:22.737Z,12.57
2023-06-01T12:05:00.582Z,12.40
2023-06-01T12:07:29.133Z,14.00
2023-06-01T12:09:58.887Z,12.67
2023-06-01T12:12:29.780Z,13.23
2023-06-01T12:15:02.728Z,15.20
2023-06-01T12:17:57.861Z,12.60
2023-06-01T12:20:31.490Z,13.30
2023-06-01T12:23:00.372Z,14.57
2023-06-01T12:25:28.657Z,15.63
2023-06-01T12:28:08.501Z,14.00
2023-06-01T12:30:38.341Z,14.73
2023-06-01T12:33:08.677Z,13.70
2023-06-01T12:35:52.900Z,12.47
2023-06-01T12:38:24.486Z,12.43
2023-06-01T12:41:08.750Z,14.47
2023-06-01T12:43:38.646Z,13.23
2023-06-01T12:46:09.274Z,14.00
2023-06-01T12:48:38.631Z,12.53
2023-06-01T12:51:09.204Z,13.83
2023-06-01T12:53:37.447Z,15.57
2023-06-01T12:56:08.518Z,13.40
2023-06-01T12:58:37.048Z,12.10
2023-06-01T13:01:07.470Z,14.13
2023-06-01T13:03:44.580Z,13.50
2023-06-01T13:06:13.605Z,14.73
2023-06-01T13:08:41.655Z,11.20
2023-06-01T13:13:46.285Z,11.93
2023-06-01T13:16:16.465Z,11.93
2023-06-01T13:18:47.142Z,12.63
2023-06-01T13:21:16.283Z,13.03
2023-06-01T13:23:45.597Z,13.10
2023-06-01T13:26:16.512Z,13.07
2023-06-01T13:28:45.305Z,12.60
2023-06-01T13:31:15.626Z,11.13
2023-06-01T13:33:46.155Z,11.00
2023-06-01T13:36:14.846Z,11.97
2023-06-01T13:38:43.222Z,11.00
2023-06-01T13:41:11.684Z,10.03
2023-06-01T13:43:41.009Z,10.70
2023-06-01T13:46:11.074Z,9.07
2023-06-01T13:48:39.773Z,9.27
2023-06-01T13:51:09.615Z,9.07
2023-06-01T13:53:38.547Z,9.10
2023-06-01T13:58:01.599Z,8.10
2023-06-01T14:00:31.175Z,7.50
2023-06-01T14:02:59.513Z,8.23
2023-06-01T14:05:35.731Z,7.90
2023-06-01T14:08:14.009Z,9.73
2023-06-01T14:10:42.145Z,9.30
2023-06-01T14:13:11.553Z,8.70
2023-06-01T14:15:39.697Z,8.20
2023-06-01T14:18:11.022Z,7.10
2023-06-01T14:20:39.561Z,6.97
2023-06-01T14:23:10.053Z,8.50
2023-06-01T14:25:38.893Z,7.07
2023-06-01T14:28:07.144Z,8.70
2023-06-01T14:30:41.370Z,7.47
2023-06-01T14:33:09.512Z,8.13
2023-06-01T14:35:38.873Z,7.53
2023-06-01T14:38:07.177Z,8.10
2023-06-01T14:40:38.312Z,7.43
2023-06-01T14:43:06.450Z,7.70
2023-06-01T14:45:35.954Z,6.53
2023-06-01T14:48:04.535Z,6.57
2023-06-01T14:50:33.113Z,7.10
2023-06-01T14:53:01.298Z,7.53
2023-06-01T14:55:29.906Z,5.80
2023-06-01T14:57:58.238Z,6.90
2023-06-01T15:00:26.543Z,6.30
2023-06-01T15:02:56.753Z,7.20
2023-06-01T15:05:25.093Z,7.00
2023-06-01T15:07:53.171Z,7.70
2023-06-01T15:10:23.179Z,7.60
2023-06-01T15:12:52.472Z,6.70
2023-06-01T15:15:21.043Z,7.40
2023-06-01T15:17:49.642Z,8.53
2023-06-01T15:20:19.101Z,8.10
2023-06-01T15:22:47.248Z,7.70
2023-06-01T15:25:17.236Z,7.20
2023-06-01T15:27:45.485Z,7.03
2023-06-01T15:30:15.612Z,8.00
2023-06-01T15:32:50.733Z,7.73
2023-06-01T15:35:25.088Z,6.63
2023-06-01T15:37:54.522Z,6.80
2023-06-01T15:40:22.574Z,6.33
2023-06-01T15:42:51.104Z,6.80
2023-06-01T15:45:19.420Z,5.87
2023-06-01T15:47:47.561Z,8.20
2023-06-01T15:50:15.848Z,5.97
2023-06-01T15:52:45.757Z,6.10
2023-06-01T15:55:13.863Z,5.83
2023-06-01T15:57:41.923Z,6.43
2023-06-01T16:00:11.737Z,6.43
2023-06-01T16:02:40.576Z,7.40
2023-06-01T16:05:09.649Z,5.80
2023-06-01T16:07:38.673Z,5.60
2023-06-01T16:10:10.005Z,4.97
2023-06-01T16:12:38.124Z,4.73
2023-06-01T16:15:06.926Z,5.07
2023-06-01T16:17:36.668Z,5.13
2023-06-01T16:20:07.181Z,6.70
2023-06-01T16:22:36.452Z,4.60
2023-06-01T16:25:05.240Z,4.70
2023-06-01T16:27:40.974Z,4.87
2023-06-01T16:30:10.120Z,4.10
2023-06-01T16:32:38.278Z,4.70
2023-06-01T16:35:07.712Z,4.83
2023-06-01T16:37:36.308Z,3.90
2023-06-01T16:40:04.560Z,5.17
2023-06-01T16:42:33.685Z,4.40
2023-06-01T16:45:03.172Z,4.53
2023-06-01T16:47:32.280Z,5.77
2023-06-01T16:50:02.168Z,4.00
2023-06-01T16:52:31.507Z,4.60
2023-06-01T16:54:59.633Z,5.40
2023-06-01T16:57:29.431Z,5.50
2023-06-01T16:59:58.133Z,3.73
2023-06-01T17:02:29.118Z,4.57
2023-06-01T17:04:57.921Z,4.33
2023-06-01T17:07:26.869Z,4.40
2023-06-01T17:09:55.477Z,4.60
2023-06-01T17:12:23.847Z,5.33
2023-06-01T17:14:54.372Z,4.40
2023-06-01T17:17:25.343Z,5.30
2023-06-01T17:19:55.930Z,4.40
2023-06-01T17:22:24.200Z,4.53
2023-06-01T17:24:52.765Z,4.47
2023-06-01T17:27:21.076Z,4.07
2023-06-01T17:29:49.296Z,4.27
2023-06-01T17:32:19.896Z,5.00
2023-06-01T17:34:47.972Z,4.90
2023-06-01T17:37:20.014Z,4.40
2023-06-01T17:39:48.504Z,3.60
2023-06-01T17:42:17.004Z,3.83
2023-06-01T17:44:45.211Z,4.30
2023-06-01T17:47:13.323Z,3.73
2023-06-01T17:49:42.330Z,4.40
2023-06-01T17:52:11.731Z,3.90
2023-06-01T17:54:46.438Z,4.43
2023-06-01T17:57:15.914Z,3.80
2023-06-01T17:59:45.459Z,4.50
2023-06-01T18:02:13.884Z,5.00
2023-06-01T18:04:44.022Z,4.70
2023-06-01T18:07:15.009Z,4.63
2023-06-01T18:09:46.524Z,3.93
2023-06-01T18:12:14.591Z,4.73
2023-06-01T18:14:42.649Z,4.63
2023-06-01T18:17:10.769Z,3.77
2023-06-01T18:19:38.995Z,6.43
2023-06-01T18:22:07.221Z,4.87
2023-06-01T18:24:35.411Z,5.10
2023-06-01T18:27:05.960Z,5.33
2023-06-01T18:29:34.641Z,4.50
2023-06-01T18:32:03.217Z,5.30
2023-06-01T18:34:33.530Z,4.90
2023-06-01T18:37:02.111Z,5.17
2023-06-01T18:39:30.312Z,5.60
2023-06-01T18:41:59.191Z,4.70
2023-06-01T18:44:28.798Z,4.33
2023-06-01T18:46:57.179Z,4.67
2023-06-01T18:49:25.398Z,4.90
2023-06-01T18:51:55.541Z,4.33
2023-06-01T18:54:23.794Z,5.20
2023-06-01T18:56:52.253Z,4.90
2023-06-01T18:59:22.040Z,5.10
2023-06-01T19:01:54.132Z,4.37
2023-06-01T19:04:23.841Z,4.10
2023-06-01T19:06:54.737Z,4.80
2023-06-01T19:09:25.258Z,4.50
2023-06-01T19:11:53.686Z,5.60
2023-06-01T19:14:25.903Z,4.00
2023-06-01T19:16:56.321Z,4.13
2023-06-01T19:19:27.382Z,4.63
2023-06-01T19:21:56.150Z,4.53
2023-06-01T19:24:28.880Z,4.47
2023-06-01T19:27:03.161Z,4.90
2023-06-01T19:29:39.969Z,4.90
2023-06-01T19:32:10.050Z,4.93
2023-06-01T19:34:40.297Z,4.53
2023-06-01T19:37:11.448Z,4.90
2023-06-01T19:39:43.134Z,4.77
2023-06-01T19:42:35.976Z,4.17
2023-06-01T19:45:06.019Z,5.37
2023-06-01T19:47:54.842Z,4.93
2023-06-01T19:50:45.065Z,5.37
2023-06-01T19:53:16.378Z,6.20
2023-06-01T19:55:46.461Z,6.10
2023-06-01T19:58:14.985Z,4.50
2023-06-01T20:00:46.774Z,5.80
2023-06-01T20:03:18.045Z,5.53
2023-06-01T20:05:48.316Z,5.27
2023-06-01T20:08:16.969Z,5.60
2023-06-01T20:10:46.273Z,5.07
2023-06-01T20:13:15.188Z,5.17
2023-06-01T20:15:44.381Z,5.27
2023-06-01T20:18:15.853Z,5.13
2023-06-01T20:20:46.493Z,3.90
2023-06-01T20:23:18.309Z,4.93
2023-06-01T20:25:48.341Z,3.73
2023-06-01T20:28:19.208Z,3.80
2023-06-01T20:31:06.404Z,4.33
2023-06-01T20:33:37.119Z,4.40
2023-06-01T20:36:08.623Z,4.07
2023-06-01T20:38:41.854Z,3.70
2023-06-01T20:41:17.635Z,3.90
2023-06-01T20:43:48.473Z,3.63
2023-06-01T20:46:17.143Z,3.17
2023-06-01T20:48:49.187Z,4.97
2023-06-01T20:51:27.100Z,4.10
2023-06-01T20:53:58.026Z,3.80
2023-06-01T20:56:30.938Z,4.00
2023-06-01T20:59:04.917Z,4.57
2023-06-01T21:01:36.672Z,3.37
2023-06-01T21:04:06.897Z,4.07
2023-06-01T21:06:38.086Z,3.90
2023-06-01T21:09:11.925Z,4.00
2023-06-01T21:11:43.428Z,4.37
2023-06-01T21:14:12.144Z,5.07
2023-06-01T21:16:40.648Z,3.53
2023-06-01T21:19:09.572Z,4.20
2023-06-01T21:21:40.959Z,4.03
2023-06-01T21:24:09.785Z,3.43
2023-06-01T21:26:40.595Z,3.93
2023-06-01T21:29:10.278Z,3.77
2023-06-01T21:31:39.541Z,3.50
2023-06-01T21:34:07.943Z,4.30
2023-06-01T21:36:38.640Z,4.33
2023-06-01T21:39:07.167Z,4.23
2023-06-01T21:41:35.458Z,4.40
2023-06-01T21:44:05.812Z,4.47
2023-06-01T21:46:34.095Z,4.40
2023-06-01T21:49:02.934Z,4.30
2023-06-01T21:51:31.332Z,4.67
2023-06-01T21:54:00.964Z,3.50
2023-06-01T21:56:30.225Z,3.80
2023-06-01T21:58:58.721Z,3.83
2023-06-01T22:01:27.176Z,3.77
2023-06-01T22:03:57.255Z,3.60
2023-06-01T22:06:26.338Z,3.40
2023-06-01T22:08:55.082Z,4.50
2023-06-01T22:11:27.095Z,3.97
2023-06-01T22:13:55.669Z,3.83
2023-06-01T22:16:23.946Z,4.00
2023-06-01T22:18:54.626Z,3.50
2023-06-01T22:21:23.380Z,4.20
2023-06-01T22:23:51.590Z,4.03
2023-06-01T22:26:20.554Z,3.43
2023-06-01T22:28:50.117Z,3.30
2023-06-01T22:31:18.763Z,3.43
2023-06-01T22:33:48.218Z,3.23
2023-06-01T22:36:17.074Z,2.83
2023-06-01T22:38:45.799Z,3.00
2023-06-01T22:41:14.324Z,4.07
2023-06-01T22:43:42.926Z,3.30
2023-06-01T22:46:13.789Z,3.87
2023-06-01T22:48:42.112Z,3.80
2023-06-01T22:51:11.398Z,3.17
2023-06-01T22:53:40.482Z,2.97
2023-06-01T22:56:09.221Z,3.50
2023-06-01T22:58:37.686Z,3.47
2023-06-01T23:01:09.099Z,4.13
2023-06-01T23:03:39.288Z,3.40
2023-06-01T23:06:07.964Z,3.47
2023-06-01T23:08:37.297Z,4.77
2023-06-01T23:11:09.714Z,3.90
2023-06-01T23:13:43.890Z,3.23
2023-06-01T23:16:36.608Z,3.60
2023-06-01T23:19:09.902Z,3.87
2023-06-01T23:21:45.665Z,3.50
2023-06-01T23:24:14.017Z,3.23
2023-06-01T23:26:43.888Z,3.20
2023-06-01T23:29:14.247Z,3.33
2023-06-01T23:31:47.731Z,3.70
2023-06-01T23:34:17.976Z,3.63
2023-06-01T23:36:46.326Z,2.90
2023-06-01T23:39:15.065Z,3.27
2023-06-01T23:41:43.731Z,3.17
2023-06-01T23:44:12.019Z,4.57
2023-06-01T23:46:41.540Z,3.77
2023-06-01T23:49:10.173Z,3.57
2023-06-01T23:51:40.121Z,3.20
2023-06-01T23:54:08.904Z,3.00
2023-06-01T23:56:37.639Z,4.33
2023-06-01T23:59:07.222Z,3.73
